Time;durP1;ratioP1;P1;durP2;ratioP2;P2;SDS_P1;SDS_P2;PMS_P1;PMS_P2;Temp;Humidity;BMP_temperature;BMP_pressure;BME280_temperature;BME280_humidity;BME280_pressure;Samples;Min_cycle;Max_cycle;Signal;HPM_P1;HPM_P2
2023/05/08 00:02:20;;;;;;;9.13;8.15;;;23.00;78.80;;;;;;6226569;28;89083;-79
2023/05/08 00:05:22;;;;;;;8.25;7.53;;;23.00;78.80;;;;;;6243618;28;89941;-80
2023/05/08 00:08:24;;;;;;;8.20;7.50;;;23.00;78.80;;;;;;6224108;28;90475;-80
2023/05/08 00:11:26;;;;;;;8.77;7.97;;;23.00;78.80;;;;;;6226758;27;89141;-81
2023/05/08 00:14:28;;;;;;;8.15;7.45;;;23.00;78.80;;;;;;6234853;28;89021;-80
2023/05/08 00:17:31;;;;;;;8.55;7.75;;;23.00;78.80;;;;;;6237519;27;89199;-81
2023/05/08 00:20:34;;;;;;;8.77;7.88;;;23.00;78.80;;;;;;6230410;28;88826;-80
2023/05/08 00:23:36;;;;;;;7.57;6.90;;;23.00;78.80;;;;;;6222118;28;87909;-79
2023/05/08 00:26:38;;;;;;;8.20;7.50;;;23.00;78.70;;;;;;6214756;27;88268;-79
2023/05/08 00:29:40;;;;;;;8.70;7.90;;;23.00;78.70;;;;;;6229198;27;89004;-79
2023/05/08 00:32:44;;;;;;;8.15;7.45;;;23.00;78.60;;;;;;6220210;28;89126;-79
2023/05/08 00:35:46;;;;;;;8.80;8.00;;;23.00;78.60;;;;;;6228542;28;90568;-79
2023/05/08 00:38:48;;;;;;;8.43;7.70;;;23.00;78.70;;;;;;6206481;28;89105;-78
2023/05/08 00:41:50;;;;;;;8.23;7.53;;;23.00;78.70;;;;;;6231282;28;89103;-79
2023/05/08 00:44:52;;;;;;;8.65;7.90;;;23.00;78.60;;;;;;6206932;28;88004;-79
2023/05/08 00:47:55;;;;;;;8.57;7.78;;;23.00;78.60;;;;;;6219587;28;89427;-80
2023/05/08 00:50:58;;;;;;;8.18;7.47;;;23.00;78.70;;;;;;6211336;28;89022;-79
2023/05/08 00:54:00;;;;;;;8.57;7.82;;;23.00;78.70;;;;;;6231160;28;89220;-79
2023/05/08 00:57:03;;;;;;;8.68;7.88;;;23.00;78.60;;;;;;6252231;27;88501;-80
2023/05/08 01:00:07;;;;;;;8.27;7.55;;;23.00;78.60;;;;;;6238213;28;89082;-79
2023/05/08 01:03:11;;;;;;;8.60;7.80;;;23.00;78.50;;;;;;6236393;27;88984;-79
2023/05/08 01:06:13;;;;;;;8.63;7.90;;;23.00;78.60;;;;;;6210889;28;90141;-79
2023/05/08 01:09:15;;;;;;;7.82;7.13;;;23.00;78.50;;;;;;6231017;28;88305;-79
2023/05/08 01:12:24;;;;;;;8.50;7.80;;;23.00;78.40;;;;;;6214143;28;88025;-79
2023/05/08 01:15:34;;;;;;;8.20;7.50;;;23.00;78.50;;;;;;6205432;28;89883;-80
2023/05/08 01:18:44;;;;;;;8.50;7.70;;;23.00;78.50;;;;;;6219085;28;88972;-78
2023/05/08 01:21:54;;;;;;;7.80;7.10;;;23.00;78.40;;;;;;6232490;28;89071;-79
2023/05/08 01:25:24;;;;;;;7.85;7.15;;;23.00;78.50;;;;;;6217044;28;87970;-78
2023/05/08 01:28:48;;;;;;;7.82;7.13;;;23.00;78.60;;;;;;6213669;28;88591;-79
2023/05/08 01:32:11;;;;;;;8.18;7.47;;;23.00;78.60;;;;;;6211343;28;89381;-78
2023/05/08 01:35:21;;;;;;;7.93;7.22;;;23.00;78.50;;;;;;6232687;28;89649;-79
2023/05/08 01:38:32;;;;;;;7.93;7.22;;;22.90;78.40;;;;;;6238461;28;90056;-79
2023/05/08 01:41:36;;;;;;;7.85;7.15;;;23.00;78.40;;;;;;6219705;28;89319;-79
2023/05/08 01:44:43;;;;;;;8.15;7.35;;;23.00;78.40;;;;;;6234242;28;89021;-80
2023/05/08 01:47:55;;;;;;;7.93;7.22;;;22.90;78.30;;;;;;6205791;28;89029;-80
2023/05/08 01:51:02;;;;;;;7.55;6.85;;;22.90;78.30;;;;;;6224582;28;89123;-79
2023/05/08 01:54:07;;;;;;;7.72;7.05;;;22.90;78.30;;;;;;6227884;28;89804;-78
2023/05/08 01:57:12;;;;;;;7.75;7.05;;;22.90;78.30;;;;;;6215614;28;88983;-80
2023/05/08 02:00:17;;;;;;;7.55;6.88;;;22.90;78.30;;;;;;6217265;28;88411;-80
2023/05/08 02:03:22;;;;;;;7.55;6.85;;;22.90;78.30;;;;;;6232243;28;89042;-80
2023/05/08 02:06:26;;;;;;;7.53;6.82;;;22.90;78.70;;;;;;6229064;27;87937;-80
2023/05/08 02:09:30;;;;;;;7.10;6.50;;;22.90;78.30;;;;;;6242902;27;89725;-79
2023/05/08 02:12:34;;;;;;;7.60;6.85;;;22.90;78.30;;;;;;6237745;28;89092;-80
2023/05/08 02:15:37;;;;;;;7.28;6.68;;;22.90;78.20;;;;;;6245491;27;89386;-80
2023/05/08 02:18:46;;;;;;;7.50;6.85;;;22.90;78.30;;;;;;6232877;27;87965;-80
2023/05/08 02:21:50;;;;;;;6.90;6.30;;;22.90;78.20;;;;;;6220590;27;89098;-80
2023/05/08 02:24:55;;;;;;;7.57;6.90;;;22.90;78.20;;;;;;6223375;28;89103;-80
2023/05/08 02:27:58;;;;;;;6.97;6.35;;;22.90;78.20;;;;;;6236807;28;88761;-80
2023/05/08 02:31:01;;;;;;;7.40;6.68;;;22.90;78.20;;;;;;6247905;27;87232;-79
2023/05/08 02:34:06;;;;;;;7.35;6.65;;;22.90;78.20;;;;;;6224493;28;89141;-79
2023/05/08 02:37:10;;;;;;;7.10;6.50;;;22.90;78.20;;;;;;6222499;28;90310;-80
2023/05/08 02:40:13;;;;;;;6.30;5.80;;;22.90;78.30;;;;;;6241342;28;90030;-80
2023/05/08 02:43:16;;;;;;;6.20;5.70;;;22.90;78.30;;;;;;6225784;28;88251;-80
2023/05/08 02:46:25;;;;;;;7.32;6.72;;;22.90;78.30;;;;;;6236227;27;89133;-78
2023/05/08 02:49:36;;;;;;;6.78;6.22;;;22.90;78.20;;;;;;6219691;28;89096;-80
2023/05/08 02:52:45;;;;;;;6.55;6.05;;;22.90;78.10;;;;;;6246512;28;89009;-79
2023/05/08 02:55:52;;;;;;;6.80;6.20;;;22.90;78.20;;;;;;6230177;28;87927;-79
2023/05/08 02:59:01;;;;;;;6.80;6.20;;;22.90;78.10;;;;;;6231881;28;91626;-79
2023/05/08 03:02:09;;;;;;;6.32;5.82;;;22.90;78.10;;;;;;6228385;28;88246;-79
2023/05/08 03:05:16;;;;;;;6.70;6.10;;;22.90;78.10;;;;;;6241491;27;88017;-80
2023/05/08 03:08:23;;;;;;;7.07;6.47;;;22.90;78.20;;;;;;6229752;28;89055;-81
2023/05/08 03:11:33;;;;;;;6.80;6.20;;;22.90;78.10;;;;;;6209270;28;90018;-81
2023/05/08 03:14:42;;;;;;;6.60;6.00;;;22.80;78.10;;;;;;6227164;27;88409;-78
2023/05/08 03:17:46;;;;;;;7.25;6.55;;;22.80;78.10;;;;;;6246429;27;89153;-80
2023/05/08 03:20:53;;;;;;;6.68;6.07;;;22.90;78.20;;;;;;6233360;28;89434;-80
2023/05/08 03:23:57;;;;;;;6.65;6.05;;;22.90;78.10;;;;;;6230178;27;89045;-78
2023/05/08 03:27:00;;;;;;;6.50;5.95;;;22.80;77.90;;;;;;6224134;28;89189;-79
2023/05/08 03:30:04;;;;;;;6.65;6.05;;;22.90;78.00;;;;;;6248538;28;89334;-79
2023/05/08 03:33:06;;;;;;;6.80;6.20;;;22.90;78.00;;;;;;6227775;27;88323;-79
2023/05/08 03:36:11;;;;;;;6.60;6.00;;;22.90;77.90;;;;;;6208477;28;89020;-78
2023/05/08 03:39:13;;;;;;;6.88;6.18;;;22.80;77.90;;;;;;6254172;28;89041;-78
2023/05/08 03:42:20;;;;;;;6.47;5.97;;;22.80;77.90;;;;;;6242520;27;89974;-79
2023/05/08 03:45:22;;;;;;;6.35;5.75;;;22.80;77.90;;;;;;6214761;28;89516;-79
2023/05/08 03:48:25;;;;;;;6.38;5.88;;;22.80;77.80;;;;;;6214104;28;89110;-79
2023/05/08 03:51:30;;;;;;;6.63;6.03;;;22.80;77.80;;;;;;6240335;28;89581;-79
2023/05/08 03:54:32;;;;;;;7.00;6.40;;;22.80;77.80;;;;;;6214305;28;89127;-78
2023/05/08 03:57:38;;;;;;;6.95;6.35;;;22.80;77.90;;;;;;6242385;27;89093;-78
2023/05/08 04:00:52;;;;;;;7.05;6.35;;;22.80;77.90;;;;;;6242750;27;87886;-78
2023/05/08 04:04:01;;;;;;;7.22;6.53;;;22.80;77.70;;;;;;6221456;28;88311;-79
2023/05/08 04:07:11;;;;;;;6.88;6.28;;;22.80;77.70;;;;;;6221938;28;89124;-78
2023/05/08 04:10:19;;;;;;;7.40;6.70;;;22.80;77.70;;;;;;6253250;27;87843;-79
2023/05/08 04:13:28;;;;;;;6.93;6.32;;;22.80;77.70;;;;;;6220982;27;89966;-78
2023/05/08 04:16:36;;;;;;;7.05;6.45;;;22.80;77.80;;;;;;6217759;27;89130;-78
2023/05/08 04:19:43;;;;;;;6.95;6.35;;;22.80;78.70;;;;;;6238756;28;89049;-79
2023/05/08 04:22:47;;;;;;;7.00;6.40;;;22.80;77.70;;;;;;6231739;28;89057;-77
2023/05/08 04:25:52;;;;;;;6.75;6.15;;;22.80;77.70;;;;;;6235752;28;88003;-78
2023/05/08 04:28:55;;;;;;;7.05;6.45;;;22.80;77.80;;;;;;6238484;28;88978;-79
2023/05/08 04:31:57;;;;;;;7.10;6.50;;;22.80;77.90;;;;;;6220364;28;89770;-78
2023/05/08 04:35:00;;;;;;;7.45;6.75;;;22.80;77.90;;;;;;6218218;28;88267;-80
2023/05/08 04:38:03;;;;;;;7.00;6.40;;;22.80;77.80;;;;;;6218518;28;89073;-79
2023/05/08 04:41:05;;;;;;;7.50;6.80;;;22.80;77.70;;;;;;6233176;28;89055;-79
2023/05/08 04:44:07;;;;;;;7.53;6.93;;;22.80;77.70;;;;;;6226359;28;90019;-78
2023/05/08 04:47:09;;;;;;;7.70;7.00;;;22.80;77.70;;;;;;6225845;28;89068;-78
2023/05/08 04:50:11;;;;;;;8.10;7.30;;;22.80;77.70;;;;;;6213233;27;89098;-79
2023/05/08 04:53:14;;;;;;;7.75;7.05;;;22.80;77.70;;;;;;6227958;28;88038;-80
2023/05/08 04:56:18;;;;;;;8.30;7.60;;;22.80;77.70;;;;;;6218719;28;89324;-80
2023/05/08 04:59:20;;;;;;;8.18;7.47;;;22.80;77.70;;;;;;6224598;28;88035;-78
2023/05/08 05:02:21;;;;;;;8.27;7.47;;;22.80;77.70;;;;;;6224997;28;87995;-79
2023/05/08 05:05:23;;;;;;;8.50;7.70;;;22.80;77.70;;;;;;6235532;28;88412;-78
2023/05/08 05:08:27;;;;;;;8.68;7.88;;;22.80;77.80;;;;;;6214178;28;89019;-79
2023/05/08 05:11:29;;;;;;;8.20;7.50;;;22.80;77.70;;;;;;6217097;28;89331;-78
2023/05/08 05:14:31;;;;;;;9.05;8.15;;;22.80;78.50;;;;;;6219177;28;90116;-78
2023/05/08 05:17:34;;;;;;;9.02;8.20;;;22.80;77.60;;;;;;6224021;28;89060;-79
2023/05/08 05:20:36;;;;;;;8.80;8.00;;;22.80;77.60;;;;;;6226758;28;89072;-79
2023/05/08 05:23:40;;;;;;;10.00;8.90;;;22.80;77.60;;;;;;6232613;28;89069;-78
2023/05/08 05:26:42;;;;;;;9.73;8.82;;;22.80;77.60;;;;;;6236993;28;89060;-78
2023/05/08 05:29:44;;;;;;;10.10;9.20;;;22.70;77.60;;;;;;6230505;27;89092;-77
2023/05/08 05:32:46;;;;;;;9.85;8.95;;;22.80;77.60;;;;;;6214783;28;88990;-77
2023/05/08 05:35:48;;;;;;;9.18;8.38;;;22.80;77.60;;;;;;6226139;27;88434;-78
2023/05/08 05:38:52;;;;;;;10.52;9.52;;;22.70;77.60;;;;;;6221746;28;89086;-77
2023/05/08 05:41:54;;;;;;;10.32;9.35;;;22.80;77.70;;;;;;6230489;27;89139;-77
2023/05/08 05:44:56;;;;;;;9.90;9.00;;;22.80;77.70;;;;;;6220838;28;89884;-78
2023/05/08 05:47:58;;;;;;;9.48;8.57;;;22.80;77.70;;;;;;6251344;27;88992;-78
2023/05/08 05:51:00;;;;;;;10.57;9.57;;;22.80;77.60;;;;;;6208924;28;89056;-78
2023/05/08 05:54:04;;;;;;;10.93;9.82;;;22.80;77.70;;;;;;6223471;28;89107;-78
2023/05/08 05:57:06;;;;;;;10.68;9.68;;;22.70;77.60;;;;;;6222936;28;89073;-78
2023/05/08 06:00:10;;;;;;;10.68;9.65;;;22.80;77.60;;;;;;6223034;28;89068;-77
2023/05/08 06:03:12;;;;;;;9.98;9.07;;;22.70;77.60;;;;;;6213201;28;89043;-79
2023/05/08 06:06:14;;;;;;;10.00;9.10;;;22.80;77.70;;;;;;6232711;28;88287;-78
2023/05/08 06:09:17;;;;;;;10.20;9.27;;;22.80;77.70;;;;;;6222313;27;89424;-79
2023/05/08 06:12:20;;;;;;;11.07;10.07;;;22.70;77.60;;;;;;6213288;28;89103;-78
2023/05/08 06:15:22;;;;;;;10.98;9.88;;;22.80;77.70;;;;;;6225606;28;89642;-78
2023/05/08 06:18:24;;;;;;;11.52;10.43;;;22.70;77.60;;;;;;6223954;28;89142;-79
2023/05/08 06:21:27;;;;;;;10.25;9.25;;;22.70;77.60;;;;;;6221573;28;89511;-80
2023/05/08 06:24:30;;;;;;;11.23;10.13;;;22.80;77.70;;;;;;6225666;28;89040;-79
2023/05/08 06:27:32;;;;;;;10.63;9.63;;;22.80;77.60;;;;;;6239739;28;89025;-79
2023/05/08 06:30:34;;;;;;;10.77;9.77;;;22.70;77.50;;;;;;6223284;28;89139;-78
2023/05/08 06:33:36;;;;;;;10.65;9.55;;;22.80;77.60;;;;;;6233665;28;89194;-79
2023/05/08 06:36:38;;;;;;;10.27;9.30;;;22.80;77.60;;;;;;6233937;28;88262;-78
2023/05/08 06:39:42;;;;;;;9.98;8.98;;;22.70;77.50;;;;;;6228265;28;89026;-78
2023/05/08 06:42:43;;;;;;;9.95;8.95;;;22.80;77.60;;;;;;6247855;28;89068;-78
2023/05/08 06:45:45;;;;;;;10.52;9.57;;;22.80;77.60;;;;;;6231460;27;88925;-79
2023/05/08 06:48:47;;;;;;;10.57;9.57;;;22.70;77.60;;;;;;6233259;28;89099;-79
2023/05/08 06:51:49;;;;;;;10.27;9.27;;;22.70;77.60;;;;;;6224510;27;89100;-78
2023/05/08 06:54:53;;;;;;;10.32;9.43;;;22.70;77.60;;;;;;6239798;28;87958;-79
2023/05/08 06:57:55;;;;;;;10.10;9.10;;;22.80;77.70;;;;;;6248611;27;89080;-79
2023/05/08 07:00:57;;;;;;;10.50;9.50;;;22.70;77.60;;;;;;6217399;28;89177;-78
2023/05/08 07:03:59;;;;;;;11.02;9.95;;;22.70;77.60;;;;;;6224141;28;89095;-79
2023/05/08 07:07:01;;;;;;;9.80;8.90;;;22.70;77.60;;;;;;6237494;27;89207;-78
2023/05/08 07:10:05;;;;;;;10.00;9.10;;;22.80;77.70;;;;;;6219680;27;88174;-77
2023/05/08 07:13:07;;;;;;;10.13;9.23;;;22.70;77.60;;;;;;6233588;28;89159;-77
2023/05/08 07:16:09;;;;;;;10.63;9.60;;;22.70;77.60;;;;;;6245796;28;89666;-77
2023/05/08 07:19:12;;;;;;;10.35;9.43;;;22.80;77.70;;;;;;6231808;28;88874;-79
2023/05/08 07:22:14;;;;;;;10.05;9.15;;;22.70;77.60;;;;;;6216335;28;89078;-79
2023/05/08 07:25:17;;;;;;;10.00;9.02;;;22.70;77.60;;;;;;6214581;28;89149;-79
2023/05/08 07:28:19;;;;;;;9.45;8.55;;;22.70;77.70;;;;;;6237665;28;89037;-78
2023/05/08 07:31:21;;;;;;;10.35;9.38;;;22.70;77.70;;;;;;6246855;28;89040;-77
2023/05/08 07:34:23;;;;;;;9.63;8.70;;;22.70;77.60;;;;;;6230423;27;89390;-80
2023/05/08 07:37:25;;;;;;;9.27;8.48;;;22.70;77.60;;;;;;6226977;28;87998;-79
2023/05/08 07:40:29;;;;;;;9.68;8.77;;;22.70;78.60;;;;;;6217762;28;89150;-79
2023/05/08 07:43:31;;;;;;;9.82;8.93;;;22.70;77.60;;;;;;6211228;28;89057;-79
2023/05/08 07:46:33;;;;;;;9.75;8.85;;;22.70;77.60;;;;;;6207541;28;90121;-79
2023/05/08 07:49:35;;;;;;;9.30;8.43;;;22.70;77.60;;;;;;6208662;28;89044;-79
2023/05/08 07:52:37;;;;;;;9.80;8.90;;;22.70;77.60;;;;;;6207411;28;88000;-79
2023/05/08 07:55:40;;;;;;;9.93;8.95;;;22.70;77.60;;;;;;6221176;28;89039;-80
2023/05/08 07:58:44;;;;;;;8.93;8.13;;;22.70;77.60;;;;;;6219133;28;89095;-79
2023/05/08 08:01:46;;;;;;;9.05;8.25;;;22.70;77.60;;;;;;6217512;28;88130;-78
2023/05/08 08:04:48;;;;;;;9.10;8.20;;;22.70;77.60;;;;;;6234712;28;88139;-79
2023/05/08 08:07:50;;;;;;;8.95;8.15;;;22.70;77.70;;;;;;6215072;28;88290;-79
2023/05/08 08:10:54;;;;;;;9.43;8.52;;;22.70;77.60;;;;;;6222499;28;88962;-79
2023/05/08 08:13:56;;;;;;;9.60;8.63;;;22.70;77.60;;;;;;6216081;28;89211;-79
2023/05/08 08:16:58;;;;;;;9.38;8.52;;;22.70;77.60;;;;;;6231559;28;89984;-79
2023/05/08 08:20:00;;;;;;;9.32;8.43;;;22.70;77.60;;;;;;6210609;28;89051;-80
2023/05/08 08:23:02;;;;;;;9.18;8.32;;;22.70;77.60;;;;;;6208428;28;88292;-79
2023/05/08 08:26:05;;;;;;;8.82;8.02;;;22.70;77.70;;;;;;6225033;28;89116;-79
2023/05/08 08:29:07;;;;;;;9.52;8.57;;;22.70;77.60;;;;;;6233841;28;88884;-78
2023/05/08 08:32:09;;;;;;;9.02;8.13;;;22.70;77.70;;;;;;6234732;27;89165;-78
2023/05/08 08:35:11;;;;;;;8.90;8.10;;;22.70;77.70;;;;;;6231772;27;89078;-79
2023/05/08 08:38:13;;;;;;;9.05;8.15;;;22.70;77.60;;;;;;6217317;28;88483;-78
2023/05/08 08:41:16;;;;;;;9.75;8.35;;;22.70;77.70;;;;;;6232013;28;89003;-77
2023/05/08 08:44:18;;;;;;;9.30;8.43;;;22.70;77.60;;;;;;6229161;28;89032;-79
2023/05/08 08:47:27;;;;;;;8.20;7.50;;;22.70;77.60;;;;;;6220016;28;89992;-78
2023/05/08 08:50:32;;;;;;;8.73;7.93;;;22.70;77.70;;;;;;6209719;28;89311;-78
2023/05/08 08:53:37;;;;;;;8.45;7.65;;;22.70;77.70;;;;;;6215257;28;87940;-78
2023/05/08 08:56:42;;;;;;;8.48;7.75;;;22.70;77.60;;;;;;6210932;28;89018;-79
2023/05/08 08:59:45;;;;;;;9.02;8.15;;;22.70;77.60;;;;;;6221126;28;89066;-78
2023/05/08 09:02:47;;;;;;;8.40;7.60;;;22.70;77.70;;;;;;6231193;28;89608;-78
2023/05/08 09:05:50;;;;;;;9.00;8.10;;;22.70;77.70;;;;;;6231434;28;89083;-78
2023/05/08 09:08:55;;;;;;;8.10;7.40;;;22.70;77.70;;;;;;6207968;28;88414;-77
2023/05/08 09:11:58;;;;;;;8.30;7.50;;;22.70;77.60;;;;;;6229024;28;89006;-78
2023/05/08 09:15:00;;;;;;;8.20;7.50;;;22.70;77.60;;;;;;6254487;27;89035;-78
2023/05/08 09:18:02;;;;;;;8.45;7.65;;;22.70;78.50;;;;;;6244018;27;89986;-78
2023/05/08 09:21:06;;;;;;;7.88;7.18;;;22.70;77.60;;;;;;6209853;28;89076;-79
2023/05/08 09:24:08;;;;;;;8.48;7.65;;;22.70;77.70;;;;;;6226961;28;89149;-78
2023/05/08 09:27:21;;;;;;;8.32;7.57;;;22.70;77.60;;;;;;6233138;28;89061;-80
2023/05/08 09:30:22;;;;;;;7.93;7.22;;;22.70;77.60;;;;;;6231853;27;89008;-78
2023/05/08 09:33:27;;;;;;;8.35;7.55;;;22.70;77.60;;;;;;6216096;28;87986;-79
2023/05/08 09:36:30;;;;;;;8.07;7.38;;;22.70;77.70;;;;;;6210889;28;88687;-79
2023/05/08 09:39:33;;;;;;;7.95;7.25;;;22.70;77.60;;;;;;6212919;28;88475;-77
2023/05/08 09:42:39;;;;;;;7.70;6.97;;;22.70;77.60;;;;;;6221512;28;89107;-78
2023/05/08 09:45:41;;;;;;;7.60;7.00;;;22.70;77.70;;;;;;6252318;27;87964;-79
2023/05/08 09:48:44;;;;;;;7.88;7.18;;;22.70;77.60;;;;;;6230239;27;90111;-79
2023/05/08 09:51:52;;;;;;;7.78;6.97;;;22.70;78.50;;;;;;6232438;28;89081;-79
2023/05/08 09:54:59;;;;;;;7.28;6.63;;;22.70;77.60;;;;;;6217349;28;89051;-79
2023/05/08 09:58:03;;;;;;;7.40;6.70;;;22.70;77.60;;;;;;6225412;28;88862;-80
2023/05/08 10:01:05;;;;;;;7.80;7.10;;;22.70;77.60;;;;;;6216728;28;89294;-79
2023/05/08 10:04:06;;;;;;;7.30;6.60;;;22.70;77.60;;;;;;6242207;28;89106;-79
2023/05/08 10:07:09;;;;;;;7.80;7.10;;;22.80;77.70;;;;;;6231523;28;89346;-78
2023/05/08 10:10:11;;;;;;;7.80;7.10;;;22.80;77.70;;;;;;6207215;28;88306;-79
2023/05/08 10:13:15;;;;;;;7.15;6.55;;;22.80;77.70;;;;;;6218418;28;89114;-79
2023/05/08 10:16:18;;;;;;;7.50;6.80;;;22.70;77.60;;;;;;6210284;27;89030;-79
2023/05/08 10:19:21;;;;;;;7.07;6.47;;;22.80;77.70;;;;;;6208271;28;90051;-79
2023/05/08 10:22:25;;;;;;;7.05;6.38;;;22.70;77.70;;;;;;6206039;28;89063;-79
2023/05/08 10:25:32;;;;;;;7.22;6.53;;;22.80;77.70;;;;;;6227118;28;89059;-80
2023/05/08 10:28:43;;;;;;;7.30;6.65;;;22.80;77.70;;;;;;6247057;27;88159;-79
2023/05/08 10:31:46;;;;;;;7.15;6.55;;;22.80;77.70;;;;;;6225518;27;88071;-78
2023/05/08 10:34:52;;;;;;;6.93;6.32;;;22.80;77.70;;;;;;6218696;28;89203;-80
2023/05/08 10:37:56;;;;;;;6.78;6.18;;;22.80;77.70;;;;;;6240079;28;89125;-78
2023/05/08 10:41:01;;;;;;;6.95;6.35;;;22.80;77.70;;;;;;6221931;28;87597;-78
2023/05/08 10:44:05;;;;;;;6.75;6.15;;;22.70;77.60;;;;;;6220639;28;89040;-78
2023/05/08 10:47:14;;;;;;;7.55;6.85;;;22.80;77.70;;;;;;6208855;28;89046;-77
2023/05/08 10:50:28;;;;;;;6.68;6.13;;;22.80;77.70;;;;;;6232426;28;90346;-78
2023/05/08 10:53:38;;;;;;;6.88;6.28;;;22.80;77.70;;;;;;6207720;28;89107;-77
2023/05/08 10:56:40;;;;;;;6.63;6.03;;;22.80;77.80;;;;;;6210271;28;89129;-77
2023/05/08 10:59:46;;;;;;;6.70;6.10;;;22.70;77.60;;;;;;6222031;28;89005;-77
2023/05/08 11:02:49;;;;;;;6.90;6.30;;;22.80;77.70;;;;;;6234206;28;89015;-77
2023/05/08 11:05:52;;;;;;;6.70;6.07;;;22.80;77.70;;;;;;6221250;28;89013;-77
2023/05/08 11:08:54;;;;;;;6.85;6.25;;;22.80;78.00;;;;;;6222270;28;89405;-76
2023/05/08 11:12:19;;;;;;;6.97;6.38;;;22.80;77.70;;;;;;6235430;27;89379;-78
2023/05/08 11:15:36;;;;;;;6.90;6.20;;;22.80;77.70;;;;;;6232300;28;89088;-78
2023/05/08 11:18:38;;;;;;;6.55;6.00;;;22.80;77.70;;;;;;6245570;27;88819;-79
2023/05/08 11:22:23;;;;;;;6.45;5.95;;;22.80;77.70;;;;;;6221188;28;90025;-78
2023/05/08 11:25:42;;;;;;;6.68;6.07;;;22.80;77.70;;;;;;6215470;28;89297;-78
2023/05/08 11:28:57;;;;;;;6.80;6.20;;;22.80;77.70;;;;;;6225143;28;89029;-77
2023/05/08 11:32:00;;;;;;;6.28;5.78;;;22.80;77.70;;;;;;6243543;27;89090;-75
2023/05/08 11:35:02;;;;;;;6.70;6.10;;;22.70;77.60;;;;;;6225345;27;89161;-79
2023/05/08 11:38:23;;;;;;;6.72;5.95;;;22.80;77.70;;;;;;6222947;27;89010;-78
2023/05/08 11:41:26;;;;;;;6.18;5.57;;;22.80;77.70;;;;;;6233940;27;89048;-79
2023/05/08 11:44:29;;;;;;;6.70;6.10;;;22.80;77.70;;;;;;6219162;27;88269;-79
2023/05/08 11:47:38;;;;;;;6.60;6.00;;;22.80;77.70;;;;;;6213719;28;89242;-80
2023/05/08 11:50:40;;;;;;;6.78;6.10;;;22.80;77.70;;;;;;6231244;28;89020;-77
2023/05/08 11:53:44;;;;;;;6.28;5.70;;;22.80;77.70;;;;;;6208367;28;88916;-78
2023/05/08 11:56:47;;;;;;;6.30;5.75;;;22.80;77.70;;;;;;6211119;28;89217;-78
2023/05/08 11:59:50;;;;;;;6.20;5.70;;;22.80;77.70;;;;;;6232987;28;89105;-77
2023/05/08 12:02:54;;;;;;;6.20;5.70;;;22.80;77.70;;;;;;6223305;27;89034;-79
2023/05/08 12:05:57;;;;;;;6.03;5.53;;;22.80;77.70;;;;;;6221347;28;89161;-79
2023/05/08 12:09:00;;;;;;;6.10;5.60;;;22.80;77.70;;;;;;6238789;27;87802;-79
2023/05/08 12:12:01;;;;;;;6.28;5.68;;;22.80;77.80;;;;;;6231009;27;89313;-78
2023/05/08 12:15:07;;;;;;;6.22;5.70;;;22.80;77.80;;;;;;6218049;28;88349;-78
2023/05/08 12:18:11;;;;;;;6.55;5.95;;;22.80;77.80;;;;;;6215967;28;87769;-78
2023/05/08 12:21:14;;;;;;;6.03;5.53;;;22.90;77.80;;;;;;6207456;28;89302;-79
2023/05/08 12:24:21;;;;;;;6.15;5.55;;;22.80;77.70;;;;;;6232090;28;89991;-78
2023/05/08 12:27:25;;;;;;;6.32;5.78;;;22.80;77.70;;;;;;6221802;28;89018;-80
2023/05/08 12:30:27;;;;;;;6.05;5.55;;;22.80;77.70;;;;;;6221377;28;87862;-79
2023/05/08 12:33:31;;;;;;;5.93;5.43;;;22.80;77.70;;;;;;6223099;27;89255;-79
2023/05/08 12:36:37;;;;;;;5.55;5.07;;;22.80;77.80;;;;;;6246515;27;89219;-75
2023/05/08 12:39:44;;;;;;;5.80;5.30;;;22.80;77.70;;;;;;6241150;28;89065;-78
2023/05/08 12:42:48;;;;;;;6.30;5.70;;;22.80;77.70;;;;;;6220094;28;89056;-79
2023/05/08 12:45:51;;;;;;;6.15;5.57;;;22.80;77.80;;;;;;6245642;28;88245;-77
2023/05/08 12:49:03;;;;;;;5.70;5.20;;;22.80;77.80;;;;;;6231870;27;89047;-79
2023/05/08 12:52:06;;;;;;;5.72;5.22;;;22.80;77.70;;;;;;6206474;28;88226;-79
2023/05/08 12:55:21;;;;;;;5.85;5.35;;;22.80;77.70;;;;;;6207535;28;90042;-78
2023/05/08 12:58:27;;;;;;;5.40;5.00;;;22.80;77.70;;;;;;6229008;28;88036;-78
2023/05/08 13:01:29;;;;;;;5.63;5.13;;;22.80;77.70;;;;;;6216379;28;89031;-77
2023/05/08 13:04:36;;;;;;;5.70;5.20;;;22.80;77.70;;;;;;6217921;28;87996;-79
2023/05/08 13:07:38;;;;;;;5.93;5.43;;;22.80;77.70;;;;;;6236991;28;89177;-76
2023/05/08 13:10:48;;;;;;;6.32;5.72;;;22.80;77.70;;;;;;6252571;27;89054;-78
2023/05/08 13:13:50;;;;;;;6.28;5.70;;;22.80;77.70;;;;;;6219472;28;89048;-77
2023/05/08 13:16:52;;;;;;;5.70;5.20;;;22.80;77.70;;;;;;6207626;28;88336;-78
2023/05/08 13:19:55;;;;;;;6.03;5.53;;;22.80;77.70;;;;;;6241479;28;89461;-78
2023/05/08 13:22:57;;;;;;;5.90;5.40;;;22.80;77.70;;;;;;6243460;27;89106;-78
2023/05/08 13:25:59;;;;;;;5.10;4.70;;;22.80;77.80;;;;;;6235302;28;90039;-79
2023/05/08 13:29:01;;;;;;;5.90;5.40;;;22.90;77.90;;;;;;6235063;28;87972;-78
2023/05/08 13:32:03;;;;;;;5.57;5.10;;;22.80;78.10;;;;;;6230445;28;87945;-77
2023/05/08 13:35:07;;;;;;;5.30;4.90;;;22.80;77.80;;;;;;6252463;28;89103;-79
2023/05/08 13:38:09;;;;;;;5.15;4.75;;;22.80;77.80;;;;;;6220471;27;89661;-77
2023/05/08 13:41:11;;;;;;;5.80;5.20;;;22.90;77.80;;;;;;6228449;28;89026;-78
2023/05/08 13:44:13;;;;;;;5.65;5.18;;;22.80;77.80;;;;;;6204895;28;89058;-79
2023/05/08 13:47:15;;;;;;;5.43;4.97;;;22.80;77.80;;;;;;6219398;28;88333;-78
2023/05/08 13:50:20;;;;;;;4.85;4.45;;;22.80;77.80;;;;;;6215474;28;89010;-79
2023/05/08 13:53:22;;;;;;;5.40;5.00;;;22.80;77.80;;;;;;6251546;28;89166;-78
2023/05/08 13:56:24;;;;;;;5.10;4.70;;;22.80;77.80;;;;;;6254082;27;90120;-78
2023/05/08 13:59:27;;;;;;;5.40;4.90;;;22.80;77.80;;;;;;6234586;27;89665;-79
2023/05/08 14:02:29;;;;;;;5.28;4.78;;;22.80;78.80;;;;;;6219430;28;89296;-79
2023/05/08 14:05:32;;;;;;;5.30;4.90;;;22.80;77.90;;;;;;6219519;28;89178;-80
2023/05/08 14:08:34;;;;;;;5.70;5.20;;;22.80;77.80;;;;;;6214263;28;89121;-79
2023/05/08 14:11:36;;;;;;;5.22;4.82;;;22.80;77.70;;;;;;6240074;28;89382;-79
2023/05/08 14:14:38;;;;;;;5.75;5.20;;;22.80;77.70;;;;;;6211125;27;88345;-79
2023/05/08 14:17:41;;;;;;;5.53;5.03;;;22.80;77.70;;;;;;6223610;28;88318;-78
2023/05/08 14:20:44;;;;;;;5.47;4.97;;;22.80;77.70;;;;;;6223118;28;89016;-79
2023/05/08 14:23:46;;;;;;;5.30;4.90;;;22.80;77.80;;;;;;6235168;28;89590;-79
2023/05/08 14:26:48;;;;;;;4.78;4.38;;;22.80;77.80;;;;;;6232920;28;90226;-80
2023/05/08 14:29:52;;;;;;;5.05;4.65;;;22.80;77.80;;;;;;6230764;28;89219;-78
2023/05/08 14:32:54;;;;;;;5.47;5.07;;;22.80;77.80;;;;;;6213915;28;88051;-79
2023/05/08 14:35:57;;;;;;;5.28;4.85;;;22.80;77.80;;;;;;6229871;28;89146;-79
2023/05/08 14:38:59;;;;;;;5.05;4.65;;;22.90;77.90;;;;;;6222070;28;89086;-79
2023/05/08 14:42:01;;;;;;;4.93;4.53;;;22.90;77.80;;;;;;6225787;28;89080;-78
2023/05/08 14:45:04;;;;;;;5.70;5.20;;;22.80;77.70;;;;;;6217154;28;89060;-78
2023/05/08 14:48:06;;;;;;;5.22;4.72;;;22.80;77.90;;;;;;6243241;27;88645;-79
2023/05/08 14:51:11;;;;;;;5.20;4.80;;;22.80;77.80;;;;;;6222632;28;89080;-78
2023/05/08 14:54:13;;;;;;;5.00;4.60;;;22.80;77.80;;;;;;6246301;27;89372;-79
2023/05/08 14:57:15;;;;;;;4.95;4.55;;;22.80;77.80;;;;;;6212418;28;89934;-80
2023/05/08 15:00:18;;;;;;;5.20;4.80;;;22.90;77.90;;;;;;6213259;28;89777;-79
2023/05/08 15:03:20;;;;;;;5.22;4.78;;;22.80;77.80;;;;;;6236079;28;89046;-81
2023/05/08 15:06:27;;;;;;;5.55;5.05;;;22.80;77.90;;;;;;6238620;27;87988;-80
2023/05/08 15:09:29;;;;;;;5.28;4.78;;;22.80;77.80;;;;;;6222776;28;89012;-82
2023/05/08 15:12:31;;;;;;;5.10;4.60;;;22.80;77.90;;;;;;6231578;28;89585;-82
2023/05/08 15:15:33;;;;;;;5.07;4.68;;;22.80;77.80;;;;;;6207793;28;89061;-81
2023/05/08 15:18:35;;;;;;;5.18;4.72;;;22.80;77.80;;;;;;6234408;28;88291;-79
2023/05/08 15:21:38;;;;;;;5.10;4.70;;;22.90;77.90;;;;;;6233908;28;89212;-79
2023/05/08 15:24:40;;;;;;;5.18;4.68;;;22.80;77.80;;;;;;6215959;28;89050;-76
2023/05/08 15:27:42;;;;;;;5.93;5.13;;;22.80;77.90;;;;;;6237660;28;90059;-76
2023/05/08 15:30:46;;;;;;;5.50;5.00;;;22.80;77.80;;;;;;6218262;28;89485;-78
2023/05/08 15:33:48;;;;;;;5.30;4.80;;;22.90;77.90;;;;;;6221729;28;88890;-79
2023/05/08 15:36:51;;;;;;;5.00;4.60;;;22.80;78.70;;;;;;6231390;28;89077;-78
2023/05/08 15:39:53;;;;;;;5.20;4.80;;;22.80;77.80;;;;;;6225579;28;89209;-78
2023/05/08 15:42:56;;;;;;;5.38;4.97;;;22.80;77.80;;;;;;6227963;28;89088;-79
2023/05/08 15:45:58;;;;;;;5.00;4.60;;;22.80;77.80;;;;;;6216792;28;89305;-78
2023/05/08 15:49:00;;;;;;;4.70;4.30;;;22.80;77.80;;;;;;6257887;27;88601;-78
2023/05/08 15:52:03;;;;;;;4.72;4.32;;;22.80;77.80;;;;;;6218568;28;89082;-78
2023/05/08 15:55:06;;;;;;;5.10;4.70;;;22.80;77.90;;;;;;6207723;28;88975;-78
2023/05/08 15:58:08;;;;;;;5.38;4.80;;;22.80;77.90;;;;;;6217988;28;90002;-79